Time;durP1;ratioP1;P1;durP2;ratioP2;P2;SDS_P1;SDS_P2;PMS_P1;PMS_P2;Temp;Humidity;BMP_temperature;BMP_pressure;BME280_temperature;BME280_humidity;BME280_pressure;Samples;Min_cycle;Max_cycle;Signal;HPM_P1;HPM_P2
2023/06/05 00:00:24;;;;;;;11.48;9.73;;;;;;;16.39;67.37;95429.63;5065288;28;20024;-76
2023/06/05 00:02:50;;;;;;;11.75;10.20;;;;;;;16.38;67.38;95430.88;5065478;28;20045;-76
2023/06/05 00:05:18;;;;;;;12.63;10.32;;;;;;;16.36;67.38;95433.34;5064389;28;20033;-76
2023/06/05 00:07:43;;;;;;;12.98;9.43;;;;;;;16.34;67.08;95437.78;5066101;28;20071;-76
2023/06/05 00:10:09;;;;;;;12.20;10.23;;;;;;;16.31;67.27;95435.97;5063972;28;20108;-75
2023/06/05 00:12:35;;;;;;;13.90;9.85;;;;;;;16.22;67.25;95422.06;5067418;28;20016;-76
2023/06/05 00:15:01;;;;;;;13.23;10.35;;;;;;;16.23;67.23;95429.97;5064781;28;20025;-76
2023/06/05 00:17:27;;;;;;;11.48;9.65;;;;;;;16.23;67.20;95431.94;5068227;28;20039;-75
2023/06/05 00:19:53;;;;;;;11.00;9.90;;;;;;;16.23;66.99;95431.94;5065388;28;20020;-76
2023/06/05 00:22:19;;;;;;;11.50;10.30;;;;;;;16.17;67.17;95431.78;5065203;28;20032;-76
2023/06/05 00:24:44;;;;;;;12.80;10.40;;;;;;;16.15;67.46;95432.25;5064402;28;20047;-75
2023/06/05 00:27:10;;;;;;;11.73;10.52;;;;;;;16.01;67.37;95410.69;5064250;28;20525;-76
2023/06/05 00:29:36;;;;;;;11.07;9.82;;;;;;;16.13;67.28;95431.94;5065855;28;20028;-77
2023/06/05 00:32:01;;;;;;;12.68;9.68;;;;;;;16.14;67.19;95433.47;5062801;28;20027;-76
2023/06/05 00:34:27;;;;;;;13.57;10.10;;;;;;;16.13;67.47;95439.50;5064315;28;20098;-76
2023/06/05 00:36:52;;;;;;;12.10;10.73;;;;;;;16.10;67.63;95429.31;5064716;28;20024;-76
2023/06/05 00:39:21;;;;;;;14.13;10.85;;;;;;;16.06;67.81;95437.81;5065651;28;20029;-76
2023/06/05 00:41:46;;;;;;;12.77;10.77;;;;;;;16.08;67.70;95434.56;5063549;28;20036;-75
2023/06/05 00:44:11;;;;;;;12.50;10.57;;;;;;;16.06;67.81;95431.50;5064385;28;20025;-76
2023/06/05 00:46:39;;;;;;;12.07;9.93;;;;;;;16.02;67.91;95428.84;5047450;28;20021;-76
2023/06/05 00:49:04;;;;;;;12.45;10.55;;;;;;;15.99;67.95;95424.22;5063801;28;20017;-76
2023/06/05 00:51:30;;;;;;;13.73;9.95;;;;;;;16.01;67.90;95421.78;5064601;28;20025;-76
2023/06/05 00:53:55;;;;;;;11.88;10.63;;;;;;;16.02;67.73;95419.75;5062713;28;20485;-76
2023/06/05 00:56:20;;;;;;;13.07;11.15;;;;;;;16.03;67.83;95416.53;5064390;28;20050;-76
2023/06/05 00:58:47;;;;;;;13.70;10.85;;;;;;;16.02;68.09;95417.00;5046083;28;20517;-76
2023/06/05 01:01:12;;;;;;;14.73;10.95;;;;;;;15.99;67.84;95415.91;5046544;28;20111;-76
2023/06/05 01:03:39;;;;;;;13.15;11.35;;;;;;;16.07;67.69;95424.69;5064074;28;20103;-76
2023/06/05 01:06:05;;;;;;;14.63;11.32;;;;;;;16.05;67.79;95413.28;5063926;28;20518;-77
2023/06/05 01:08:38;;;;;;;14.02;10.80;;;;;;;16.06;67.94;95407.31;5068001;28;20532;-77
2023/06/05 01:11:08;;;;;;;12.77;11.43;;;;;;;16.07;67.88;95405.28;5067596;28;20117;-76
2023/06/05 01:13:35;;;;;;;15.07;11.27;;;;;;;16.07;67.94;95403.28;5050917;28;20033;-76
2023/06/05 01:16:04;;;;;;;14.02;11.32;;;;;;;16.07;67.91;95405.28;5066686;28;20024;-76
2023/06/05 01:18:30;;;;;;;15.30;12.02;;;;;;;16.05;68.13;95397.41;5066962;28;20028;-76
2023/06/05 01:21:01;;;;;;;13.45;10.95;;;;;;;16.06;67.80;95396.19;5069300;28;20031;-76
2023/06/05 01:23:28;;;;;;;17.25;11.98;;;;;;;16.02;68.16;95397.59;5068551;28;20422;-76
2023/06/05 01:25:56;;;;;;;12.90;11.20;;;;;;;16.04;67.89;95390.34;5069580;28;20025;-75
2023/06/05 01:28:29;;;;;;;14.15;11.25;;;;;;;16.05;68.07;95391.09;5048740;28;20047;-76
2023/06/05 01:31:13;;;;;;;18.13;13.68;;;;;;;16.00;67.82;95389.72;5050785;28;20025;-76
2023/06/05 01:33:45;;;;;;;15.50;11.98;;;;;;;15.93;67.96;95376.91;5067512;28;20028;-76
2023/06/05 01:36:11;;;;;;;16.08;11.85;;;;;;;15.99;68.06;95381.84;5065964;28;20035;-76
2023/06/05 01:38:38;;;;;;;15.27;12.45;;;;;;;15.96;67.88;95378.00;5067879;28;20029;-76
2023/06/05 01:41:04;;;;;;;13.70;12.15;;;;;;;15.94;67.79;95374.91;5065265;28;20063;-76
2023/06/05 01:43:30;;;;;;;13.20;11.65;;;;;;;15.92;67.75;95383.69;5067648;28;20016;-76
2023/06/05 01:45:58;;;;;;;14.30;11.57;;;;;;;15.89;67.83;95381.88;5066893;28;20033;-76
2023/06/05 01:48:27;;;;;;;15.95;12.60;;;;;;;15.87;67.68;95381.53;5068535;28;20025;-75
2023/06/05 01:51:00;;;;;;;18.17;12.40;;;;;;;15.82;67.59;95382.16;5066453;28;20028;-76
2023/06/05 01:53:29;;;;;;;15.52;12.63;;;;;;;15.81;67.28;95383.38;5065998;28;20024;-75
2023/06/05 01:55:57;;;;;;;13.85;11.57;;;;;;;15.77;67.43;95384.75;5067765;28;20032;-77
2023/06/05 01:58:26;;;;;;;14.40;12.07;;;;;;;15.73;67.14;95382.16;5065392;28;20032;-77
2023/06/05 02:01:03;;;;;;;15.00;11.48;;;;;;;15.74;67.35;95392.00;5072777;28;20044;-76
2023/06/05 02:03:28;;;;;;;18.08;12.05;;;;;;;15.71;67.47;95392.13;5073454;28;20689;-77
2023/06/05 02:05:54;;;;;;;18.88;12.57;;;;;;;15.70;67.50;95385.06;5066904;28;20066;-77
2023/06/05 02:08:22;;;;;;;15.50;12.27;;;;;;;15.65;67.49;95390.00;5066764;28;20066;-76
2023/06/05 02:10:48;;;;;;;14.02;11.48;;;;;;;15.66;67.78;95388.00;5065561;28;20031;-76
2023/06/05 02:13:22;;;;;;;14.50;12.30;;;;;;;15.63;67.58;95389.66;5067208;28;20025;-76
2023/06/05 02:15:52;;;;;;;15.88;12.48;;;;;;;15.63;67.90;95386.91;5064652;28;20029;-76
2023/06/05 02:18:17;;;;;;;18.38;12.68;;;;;;;15.54;67.97;95370.25;5067213;28;20033;-76
2023/06/05 02:20:42;;;;;;;22.65;13.52;;;;;;;15.63;67.89;95383.34;5065888;28;20106;-76
2023/06/05 02:23:08;;;;;;;13.35;11.95;;;;;;;15.60;68.05;95376.72;5067680;28;20025;-76
2023/06/05 02:25:33;;;;;;;16.33;11.80;;;;;;;15.60;68.15;95387.81;5066173;28;20376;-76
2023/06/05 02:27:59;;;;;;;14.88;12.07;;;;;;;15.60;68.09;95385.03;5068899;28;20064;-76
2023/06/05 02:30:24;;;;;;;16.10;11.85;;;;;;;15.60;68.00;95393.34;5067518;28;20474;-76
2023/06/05 02:32:56;;;;;;;17.65;12.30;;;;;;;15.57;68.34;95390.72;5064740;28;20029;-76
2023/06/05 02:35:25;;;;;;;16.40;12.35;;;;;;;15.56;68.44;95389.16;5066858;28;20048;-77
2023/06/05 02:37:53;;;;;;;14.50;11.93;;;;;;;15.51;68.42;95382.22;5066242;28;20039;-77
2023/06/05 02:40:18;;;;;;;20.63;13.93;;;;;;;15.54;68.54;95391.63;5066183;28;20028;-76
2023/06/05 02:42:44;;;;;;;13.77;11.15;;;;;;;15.53;68.36;95384.53;5065472;28;20024;-77
2023/06/05 02:45:09;;;;;;;13.82;11.80;;;;;;;15.46;68.64;95380.06;5065193;28;20080;-76
2023/06/05 02:47:35;;;;;;;17.10;13.02;;;;;;;15.50;68.77;95385.47;5067413;28;20055;-76
2023/06/05 02:50:01;;;;;;;18.23;12.75;;;;;;;15.49;68.74;95387.47;5065611;28;20060;-76
2023/06/05 02:52:34;;;;;;;15.82;12.30;;;;;;;15.47;69.03;95383.59;5066591;28;20039;-75
2023/06/05 02:55:01;;;;;;;15.37;12.23;;;;;;;15.47;68.87;95380.81;5065709;28;20021;-75
2023/06/05 02:57:26;;;;;;;16.17;11.60;;;;;;;15.46;68.73;95382.84;5066183;28;20039;-76
2023/06/05 02:59:52;;;;;;;23.20;12.43;;;;;;;15.47;68.62;95389.13;5068536;28;20103;-77
2023/06/05 03:02:17;;;;;;;15.32;11.07;;;;;;;15.45;68.62;95392.38;5048432;28;20429;-76
2023/06/05 03:04:43;;;;;;;19.02;11.70;;;;;;;15.43;68.34;95397.63;5066859;28;20052;-78
2023/06/05 03:07:09;;;;;;;17.73;11.30;;;;;;;15.42;68.43;95393.28;5064357;28;20021;-76
2023/06/05 03:09:36;;;;;;;15.55;11.50;;;;;;;15.40;68.17;95396.50;5065433;28;20048;-77
2023/06/05 03:12:01;;;;;;;17.00;11.35;;;;;;;15.41;68.16;95400.81;5046864;28;20032;-76
2023/06/05 03:14:27;;;;;;;14.25;11.07;;;;;;;15.33;68.46;95385.72;5067242;28;20028;-76
2023/06/05 03:16:53;;;;;;;16.65;10.73;;;;;;;15.39;68.20;95396.97;5065358;28;20017;-76
2023/06/05 03:19:19;;;;;;;18.85;12.10;;;;;;;15.38;68.33;95400.97;5048577;28;20028;-77
2023/06/05 03:21:45;;;;;;;17.27;11.98;;;;;;;15.40;68.53;95415.13;5064951;28;20043;-77
2023/06/05 03:24:15;;;;;;;14.75;11.80;;;;;;;15.40;68.48;95415.13;5047537;28;20395;-76
2023/06/05 03:26:41;;;;;;;14.38;10.77;;;;;;;15.41;68.45;95417.44;5067187;28;20115;-75
2023/06/05 03:29:07;;;;;;;15.30;12.10;;;;;;;15.42;68.50;95418.22;5063033;28;20028;-76
2023/06/05 03:31:33;;;;;;;18.25;12.55;;;;;;;15.41;68.53;95411.91;5065503;28;20032;-75
2023/06/05 03:33:59;;;;;;;18.27;12.13;;;;;;;15.44;68.34;95412.22;5067634;28;20040;-76
2023/06/05 03:36:29;;;;;;;16.10;11.63;;;;;;;15.46;68.59;95409.75;5065455;28;20028;-77
2023/06/05 03:38:55;;;;;;;16.00;12.48;;;;;;;15.47;68.56;95420.38;5047875;28;20016;-74
2023/06/05 03:41:21;;;;;;;18.70;12.90;;;;;;;15.52;68.90;95416.25;5047129;28;20532;-76
2023/06/05 03:43:52;;;;;;;19.48;12.88;;;;;;;15.53;68.87;95413.00;5064737;28;20048;-75
2023/06/05 03:46:20;;;;;;;17.13;13.48;;;;;;;15.54;68.77;95411.00;5064378;28;20103;-77
2023/06/05 03:48:46;;;;;;;17.63;13.43;;;;;;;15.57;68.58;95401.78;5048914;28;20024;-78
2023/06/05 03:51:12;;;;;;;19.50;14.10;;;;;;;15.54;68.93;95403.50;5063006;28;20027;-76
2023/06/05 03:53:39;;;;;;;18.55;13.50;;;;;;;15.52;68.95;95410.72;5066691;28;20040;-75
2023/06/05 03:56:06;;;;;;;16.65;13.20;;;;;;;15.54;68.61;95408.25;5065770;28;20534;-76
2023/06/05 03:58:32;;;;;;;15.95;12.73;;;;;;;15.58;68.39;95415.19;5064122;28;20479;-76
2023/06/05 04:00:57;;;;;;;17.33;12.32;;;;;;;15.61;68.60;95417.06;5064288;28;20058;-76
2023/06/05 04:03:25;;;;;;;15.65;13.48;;;;;;;15.64;68.30;95423.69;5064394;28;20078;-76
2023/06/05 04:05:51;;;;;;;16.83;13.13;;;;;;;15.65;68.45;95419.69;5066406;28;20064;-76
2023/06/05 04:08:17;;;;;;;20.38;13.27;;;;;;;15.72;68.48;95421.41;5063687;28;20024;-76
2023/06/05 04:10:42;;;;;;;19.42;14.07;;;;;;;15.74;68.37;95414.19;5065461;28;20028;-76
2023/06/05 04:13:07;;;;;;;19.58;13.63;;;;;;;15.82;68.71;95422.97;5063017;28;20032;-76
2023/06/05 04:15:33;;;;;;;16.20;12.57;;;;;;;15.89;68.48;95419.91;5064207;28;20160;-77
2023/06/05 04:17:59;;;;;;;17.75;13.82;;;;;;;15.95;68.64;95428.41;5065464;28;20024;-77
2023/06/05 04:20:24;;;;;;;19.48;14.02;;;;;;;16.02;68.69;95428.09;5064663;28;20111;-77
2023/06/05 04:22:51;;;;;;;18.40;12.90;;;;;;;16.07;68.63;95424.69;5067120;28;20457;-77
2023/06/05 04:25:17;;;;;;;18.70;13.88;;;;;;;16.11;68.51;95428.06;5068384;28;20029;-76
2023/06/05 04:27:44;;;;;;;21.52;13.68;;;;;;;16.15;68.32;95421.16;5048272;28;20513;-77
2023/06/05 04:30:12;;;;;;;16.98;14.40;;;;;;;16.21;68.31;95418.53;5046390;28;20167;-79
2023/06/05 04:32:38;;;;;;;18.02;13.05;;;;;;;16.24;68.45;95416.84;5065600;28;20162;-76
2023/06/05 04:35:08;;;;;;;20.42;13.32;;;;;;;16.28;68.15;95414.69;5063078;28;20035;-76
2023/06/05 04:37:35;;;;;;;17.15;13.73;;;;;;;16.31;68.51;95416.53;5063473;28;20541;-76
2023/06/05 04:40:05;;;;;;;19.25;15.02;;;;;;;16.35;68.52;95417.94;5048964;28;20116;-75
2023/06/05 04:42:31;;;;;;;16.83;14.65;;;;;;;16.40;68.44;95416.53;5062264;28;20024;-75
2023/06/05 04:45:00;;;;;;;21.52;14.15;;;;;;;16.44;68.12;95417.13;5068674;28;20127;-74
2023/06/05 04:47:26;;;;;;;17.65;15.25;;;;;;;16.45;67.97;95416.66;5068611;28;20024;-76
2023/06/05 04:49:53;;;;;;;18.20;15.20;;;;;;;16.49;68.46;95418.53;5054075;28;20039;-77
2023/06/05 04:52:20;;;;;;;17.25;14.38;;;;;;;16.52;68.26;95421.16;5069411;28;20063;-77
2023/06/05 04:54:47;;;;;;;18.83;15.07;;;;;;;16.54;68.49;95424.22;5069781;28;20028;-75
2023/06/05 04:57:16;;;;;;;17.48;15.38;;;;;;;16.59;68.43;95426.38;5068663;28;20039;-74
2023/06/05 04:59:42;;;;;;;19.10;14.48;;;;;;;16.64;68.06;95425.78;5069298;28;20020;-75
2023/06/05 05:02:08;;;;;;;19.92;14.90;;;;;;;16.69;68.18;95427.91;5069880;28;20060;-76
2023/06/05 05:04:34;;;;;;;21.05;16.17;;;;;;;16.72;67.96;95424.22;5067013;28;20032;-78
2023/06/05 05:07:01;;;;;;;22.23;14.80;;;;;;;16.78;68.01;95427.16;5069697;28;20028;-76
2023/06/05 05:09:32;;;;;;;20.85;15.57;;;;;;;16.80;67.61;95421.88;5066359;28;20025;-76
2023/06/05 05:11:58;;;;;;;18.73;15.13;;;;;;;16.87;67.42;95420.81;5067451;28;20024;-77
2023/06/05 05:14:26;;;;;;;16.83;14.95;;;;;;;16.88;67.60;95420.34;5067001;28;20101;-76
2023/06/05 05:16:53;;;;;;;19.13;15.35;;;;;;;16.92;67.86;95422.97;5065303;28;20043;-77
2023/06/05 05:19:19;;;;;;;18.85;15.23;;;;;;;16.92;67.96;95434.09;5069779;28;20024;-78
2023/06/05 05:21:47;;;;;;;21.10;14.98;;;;;;;16.96;67.74;95420.78;5067431;28;20033;-76
2023/06/05 05:24:12;;;;;;;18.77;14.63;;;;;;;16.99;67.95;95420.63;5068546;28;20127;-77
2023/06/05 05:26:39;;;;;;;20.77;15.95;;;;;;;17.07;67.76;95415.50;5065423;28;20112;-77
2023/06/05 05:29:05;;;;;;;19.15;14.57;;;;;;;17.13;67.66;95418.41;5067808;28;20428;-78
2023/06/05 05:31:30;;;;;;;20.17;14.73;;;;;;;17.20;67.69;95415.28;5066761;28;20138;-76
2023/06/05 05:33:56;;;;;;;18.20;15.48;;;;;;;17.27;67.70;95423.31;5049793;28;20038;-76
2023/06/05 05:36:21;;;;;;;24.10;15.75;;;;;;;17.33;68.03;95418.66;5067274;28;20036;-75
2023/06/05 05:38:46;;;;;;;20.85;16.35;;;;;;;17.38;67.86;95422.81;5066639;28;20135;-76
2023/06/05 05:41:12;;;;;;;21.85;15.57;;;;;;;17.47;67.79;95428.31;5068843;28;20036;-77
2023/06/05 05:43:37;;;;;;;19.15;15.50;;;;;;;17.52;67.85;95414.53;5069687;28;20025;-79
2023/06/05 05:46:03;;;;;;;19.23;15.77;;;;;;;17.65;67.26;95416.34;5071974;28;20481;-76
2023/06/05 05:48:28;;;;;;;21.98;15.52;;;;;;;17.74;67.32;95411.53;5065767;28;20043;-74
2023/06/05 05:50:55;;;;;;;20.88;16.20;;;;;;;17.82;67.05;95411.94;5066886;28;20052;-77
2023/06/05 05:53:20;;;;;;;25.95;16.92;;;;;;;17.91;66.87;95414.66;5067694;28;20070;-76
2023/06/05 05:55:46;;;;;;;22.60;16.38;;;;;;;18.00;66.71;95411.03;5065180;28;20024;-75
2023/06/05 05:58:12;;;;;;;21.67;16.92;;;;;;;18.11;66.89;95397.38;5068601;28;20021;-76
2023/06/05 06:00:37;;;;;;;18.67;14.80;;;;;;;18.23;66.70;95403.91;5066104;28;20071;-76
2023/06/05 06:03:03;;;;;;;19.73;14.57;;;;;;;18.31;66.69;95408.66;5067541;28;20676;-77
2023/06/05 06:05:30;;;;;;;18.17;14.70;;;;;;;18.26;65.27;95400.19;5067058;28;20040;-77
2023/06/05 06:07:56;;;;;;;17.42;13.90;;;;;;;18.38;65.46;95403.97;5068606;28;20017;-76
2023/06/05 06:10:22;;;;;;;17.00;13.73;;;;;;;18.47;64.94;95403.91;5066123;28;20522;-76
2023/06/05 06:12:49;;;;;;;17.70;14.13;;;;;;;18.57;65.36;95403.31;5065968;28;20040;-75
2023/06/05 06:15:14;;;;;;;18.35;14.32;;;;;;;18.58;65.10;95406.91;5068507;28;20028;-76
2023/06/05 06:17:40;;;;;;;19.13;13.77;;;;;;;18.53;64.66;95404.78;5064920;28;20073;-76
2023/06/05 06:20:11;;;;;;;16.50;13.93;;;;;;;18.65;64.88;95406.50;5068482;28;20406;-76
2023/06/05 06:22:36;;;;;;;21.67;14.05;;;;;;;18.79;65.01;95402.97;5064526;28;20025;-75
2023/06/05 06:25:03;;;;;;;18.70;13.38;;;;;;;18.90;64.30;95410.00;5068205;28;20020;-75
2023/06/05 06:27:29;;;;;;;16.75;13.23;;;;;;;19.03;64.62;95405.66;5066589;28;20032;-75
2023/06/05 06:29:55;;;;;;;17.40;12.77;;;;;;;19.22;64.41;95402.69;5066964;28;20081;-75
2023/06/05 06:32:22;;;;;;;19.33;13.75;;;;;;;19.36;63.68;95396.31;5067341;28;20475;-75
2023/06/05 06:34:47;;;;;;;13.40;11.18;;;;;;;19.40;62.15;95398.91;5065709;28;20024;-76
2023/06/05 06:37:20;;;;;;;14.70;12.07;;;;;;;19.49;62.46;95393.19;5066619;28;20090;-75
2023/06/05 06:39:45;;;;;;;17.00;11.88;;;;;;;19.55;62.20;95391.25;5067495;28;20025;-75
2023/06/05 06:42:11;;;;;;;14.68;11.75;;;;;;;19.71;61.86;95398.38;5066725;28;20061;-75
2023/06/05 06:44:39;;;;;;;13.95;10.93;;;;;;;19.70;60.32;95392.03;5065726;28;20021;-76
2023/06/05 06:47:05;;;;;;;15.43;12.00;;;;;;;19.80;60.55;95389.88;5069199;28;20532;-76
2023/06/05 06:49:31;;;;;;;16.27;11.95;;;;;;;19.83;60.47;95380.53;5067401;28;20212;-75
2023/06/05 06:51:57;;;;;;;14.02;11.23;;;;;;;19.82;58.54;95390.16;5065484;28;20499;-76
2023/06/05 06:54:22;;;;;;;13.88;10.57;;;;;;;19.63;58.87;95395.22;5066075;28;20032;-76
2023/06/05 06:56:49;;;;;;;16.45;10.93;;;;;;;19.77;58.74;95380.44;5065051;28;20125;-77
2023/06/05 06:59:16;;;;;;;13.85;11.68;;;;;;;19.87;59.07;95381.84;5067463;28;20040;-75
2023/06/05 07:01:46;;;;;;;18.02;11.52;;;;;;;20.03;59.09;95380.53;5063665;28;20025;-76
2023/06/05 07:04:16;;;;;;;15.60;12.82;;;;;;;20.22;58.74;95372.66;5065686;28;20028;-76
2023/06/05 07:06:43;;;;;;;16.50;13.90;;;;;;;20.31;57.85;95383.69;5064210;28;20044;-76
2023/06/05 07:09:10;;;;;;;18.45;13.27;;;;;;;20.35;58.21;95381.41;5064336;28;20111;-75
2023/06/05 07:11:37;;;;;;;14.75;12.15;;;;;;;20.50;57.62;95386.19;5065884;28;20533;-76
2023/06/05 07:14:07;;;;;;;18.38;12.57;;;;;;;20.50;56.46;95389.75;5064773;28;20110;-77
2023/06/05 07:16:33;;;;;;;14.32;12.82;;;;;;;20.65;57.44;95382.03;5066646;28;20155;-75
2023/06/05 07:18:58;;;;;;;16.88;13.13;;;;;;;20.74;56.64;95374.75;5062852;28;20494;-76
2023/06/05 07:21:24;;;;;;;17.75;13.07;;;;;;;20.80;56.80;95372.75;5066645;28;20428;-76
2023/06/05 07:23:51;;;;;;;17.02;13.63;;;;;;;21.01;56.47;95379.06;5064133;28;20032;-77
2023/06/05 07:26:17;;;;;;;17.55;13.27;;;;;;;21.08;55.59;95384.97;5066233;28;20024;-74
2023/06/05 07:28:43;;;;;;;17.20;12.60;;;;;;;21.22;54.83;95386.09;5066627;28;20090;-75
2023/06/05 07:31:10;;;;;;;18.88;14.18;;;;;;;21.44;54.88;95400.25;5063339;28;20021;-75
2023/06/05 07:33:35;;;;;;;16.70;12.73;;;;;;;21.58;54.61;95393.00;5068744;28;20032;-76
2023/06/05 07:36:01;;;;;;;17.45;12.02;;;;;;;21.69;53.78;95398.66;5063330;28;20115;-76
2023/06/05 07:38:27;;;;;;;18.27;13.63;;;;;;;21.72;52.71;95399.69;5065218;28;20029;-75
2023/06/05 07:40:52;;;;;;;16.77;13.52;;;;;;;21.74;52.71;95397.16;5062997;28;20028;-75
2023/06/05 07:43:18;;;;;;;16.23;13.45;;;;;;;21.83;53.26;95404.59;5064694;28;20025;-75
2023/06/05 07:45:44;;;;;;;19.63;14.40;;;;;;;22.03;53.26;95409.28;5064619;28;20104;-75
2023/06/05 07:48:09;;;;;;;18.70;14.55;;;;;;;22.14;52.92;95410.13;5046695;28;20414;-75
2023/06/05 07:50:34;;;;;;;16.38;13.32;;;;;;;22.25;52.61;95410.19;5066526;28;20488;-75
2023/06/05 07:53:01;;;;;;;16.20;13.30;;;;;;;22.43;52.33;95414.56;5062717;28;20021;-74
2023/06/05 07:55:26;;;;;;;19.67;13.65;;;;;;;22.49;52.40;95409.75;5066767;28;20037;-75
2023/06/05 07:57:52;;;;;;;17.95;12.95;;;;;;;22.72;51.16;95413.38;5064563;28;20024;-76
2023/06/05 08:00:19;;;;;;;16.33;12.88;;;;;;;22.80;51.54;95406.00;5064878;28;20474;-75
2023/06/05 08:02:44;;;;;;;14.88;11.98;;;;;;;22.96;50.77;95403.78;5064959;28;20100;-75
2023/06/05 08:05:10;;;;;;;17.38;12.93;;;;;;;23.07;50.47;95417.81;5063632;28;20116;-75
2023/06/05 08:07:35;;;;;;;18.40;12.32;;;;;;;23.12;50.38;95408.66;5066122;28;20037;-77
2023/06/05 08:10:01;;;;;;;16.35;12.85;;;;;;;23.26;49.61;95404.06;5062794;28;20036;-76
2023/06/05 08:12:26;;;;;;;14.85;12.15;;;;;;;23.41;49.02;95403.81;5064801;28;20029;-75
2023/06/05 08:14:52;;;;;;;16.33;13.07;;;;;;;23.62;49.52;95409.91;5063683;28;20028;-76
2023/06/05 08:17:17;;;;;;;15.13;11.77;;;;;;;23.61;49.22;95403.53;5065599;28;20510;-73
2023/06/05 08:19:43;;;;;;;14.48;10.88;;;;;;;23.67;48.74;95400.72;5062526;28;20375;-75
2023/06/05 08:22:08;;;;;;;16.58;11.95;;;;;;;23.81;48.65;95408.88;5065530;28;20032;-75
2023/06/05 08:24:34;;;;;;;18.60;11.80;;;;;;;23.95;48.21;95404.25;5065057;28;20040;-76
2023/06/05 08:27:00;;;;;;;16.95;11.93;;;;;;;24.02;48.02;95409.34;5063460;28;20020;-75
2023/06/05 08:29:27;;;;;;;14.00;11.30;;;;;;;24.25;46.88;95415.63;5066928;28;20025;-75
2023/06/05 08:31:53;;;;;;;13.18;10.93;;;;;;;24.40;46.54;95414.63;5063834;28;20637;-76
2023/06/05 08:34:18;;;;;;;15.73;11.65;;;;;;;24.47;46.97;95417.63;5065777;28;20475;-75
2023/06/05 08:36:44;;;;;;;15.50;11.80;;;;;;;24.56;46.63;95411.72;5045556;28;20046;-76
2023/06/05 08:39:10;;;;;;;15.80;11.70;;;;;;;24.61;46.30;95419.38;5064148;28;20013;-76
2023/06/05 08:41:36;;;;;;;13.80;11.45;;;;;;;24.68;45.65;95420.88;5063049;28;20058;-76
2023/06/05 08:44:02;;;;;;;16.00;11.25;;;;;;;24.72;44.41;95403.75;5063639;28;20458;-75
2023/06/05 08:46:29;;;;;;;14.73;11.48;;;;;;;25.03;44.40;95428.59;5064986;28;20112;-75
2023/06/05 08:48:55;;;;;;;14.32;11.65;;;;;;;25.03;43.63;95422.19;5062813;28;20499;-76
2023/06/05 08:51:21;;;;;;;15.82;10.95;;;;;;;25.17;44.29;95409.84;5064356;28;20031;-76
2023/06/05 08:54:12;;;;;;;13.88;10.98;;;;;;;25.23;44.92;95421.06;5062023;28;20111;-75
2023/06/05 08:56:39;;;;;;;12.93;10.52;;;;;;;25.05;44.08;95408.38;5064168;28;20425;-75
2023/06/05 08:59:07;;;;;;;15.25;10.90;;;;;;;25.13;44.55;95418.59;5064770;28;20094;-76
2023/06/05 09:01:32;;;;;;;14.35;11.00;;;;;;;25.04;44.58;95415.28;5064331;28;20052;-76
2023/06/05 09:03:58;;;;;;;14.45;11.77;;;;;;;25.15;44.69;95409.63;5064202;28;20101;-77
2023/06/05 09:06:23;;;;;;;14.02;11.48;;;;;;;25.13;44.42;95406.56;5063126;28;20056;-76
2023/06/05 09:08:49;;;;;;;14.35;11.18;;;;;;;25.18;44.31;95413.44;5069018;28;20052;-77
2023/06/05 09:11:29;;;;;;;13.80;10.63;;;;;;;25.25;44.51;95413.63;5062199;28;20048;-77
2023/06/05 09:13:57;;;;;;;13.45;11.35;;;;;;;25.32;44.65;95415.88;5064145;28;20026;-77
2023/06/05 09:16:33;;;;;;;12.63;10.23;;;;;;;25.35;43.82;95411.28;5046206;28;20043;-76
2023/06/05 09:18:58;;;;;;;13.13;9.80;;;;;;;25.26;44.01;95408.78;5062891;28;20534;-76
2023/06/05 09:21:30;;;;;;;16.60;10.50;;;;;;;25.25;44.44;95419.25;5063725;28;20056;-76
2023/06/05 09:24:19;;;;;;;13.10;10.60;;;;;;;25.29;43.53;95410.53;5064409;28;20889;-76
2023/06/05 09:26:57;;;;;;;13.55;10.60;;;;;;;25.36;43.66;95409.97;5064258;28;20035;-76
2023/06/05 09:29:33;;;;;;;13.05;10.57;;;;;;;25.23;42.63;95409.81;5065010;28;20040;-76
2023/06/05 09:31:59;;;;;;;13.05;11.05;;;;;;;25.06;43.25;95407.91;5067499;28;20025;-76
2023/06/05 09:34:28;;;;;;;12.88;9.95;;;;;;;25.19;43.57;95412.91;5068815;28;20143;-75
2023/06/05 09:36:57;;;;;;;12.23;9.90;;;;;;;25.24;42.07;95409.31;5066625;28;20047;-75
2023/06/05 09:39:24;;;;;;;13.75;10.00;;;;;;;25.35;42.74;95405.66;5051041;28;20025;-75
2023/06/05 09:41:51;;;;;;;13.07;9.60;;;;;;;25.55;43.48;95398.81;5066634;28;20036;-76
2023/06/05 09:44:17;;;;;;;13.20;9.25;;;;;;;25.02;42.47;95401.00;5067122;28;20411;-75
2023/06/05 09:46:52;;;;;;;11.57;9.60;;;;;;;24.72;43.14;95396.06;5049000;28;20488;-75
2023/06/05 09:49:19;;;;;;;12.07;8.80;;;;;;;24.86;43.39;95389.31;5067132;28;20490;-75
2023/06/05 09:51:45;;;;;;;14.25;9.57;;;;;;;25.09;43.82;95389.97;5069015;28;20491;-74
2023/06/05 09:54:12;;;;;;;14.95;9.52;;;;;;;25.48;43.05;95388.91;5065084;28;20024;-76
2023/06/05 09:56:40;;;;;;;12.15;9.75;;;;;;;25.69;41.28;95392.78;5067050;28;20043;-76
2023/06/05 09:59:06;;;;;;;11.93;9.15;;;;;;;26.02;42.22;95384.53;5065300;28;20094;-75
2023/06/05 10:01:35;;;;;;;10.88;8.55;;;;;;;26.16;41.03;95386.94;5066830;28;20028;-75
2023/06/05 10:04:09;;;;;;;12.02;8.18;;;;;;;26.42;39.75;95382.81;5067176;28;20524;-75
2023/06/05 10:06:36;;;;;;;9.90;7.85;;;;;;;26.23;41.22;95384.84;5068152;28;20582;-75
2023/06/05 10:09:03;;;;;;;11.80;7.50;;;;;;;26.38;40.66;95387.97;5067133;28;20512;-76
2023/06/05 10:11:29;;;;;;;15.02;8.88;;;;;;;26.20;39.86;95378.94;5065862;28;20028;-76
2023/06/05 10:13:58;;;;;;;10.20;8.70;;;;;;;26.46;39.59;95380.47;5050426;28;20100;-75
2023/06/05 10:16:26;;;;;;;10.57;7.85;;;;;;;26.33;40.13;95380.34;5048779;28;20032;-76
2023/06/05 10:18:51;;;;;;;8.82;7.47;;;;;;;26.02;39.88;95373.28;5068940;28;20024;-76
2023/06/05 10:21:18;;;;;;;10.52;7.60;;;;;;;26.21;40.07;95380.50;5066978;28;20059;-77
2023/06/05 10:23:48;;;;;;;9.27;6.90;;;;;;;25.79;39.06;95378.38;5067116;28;20052;-75
2023/06/05 10:26:46;;;;;;;10.35;7.07;;;;;;;25.68;40.53;95382.03;5049809;28;20407;-76
2023/06/05 10:29:39;;;;;;;11.00;7.80;;;;;;;25.71;40.97;95388.69;5031028;28;20052;-75
2023/06/05 10:32:31;;;;;;;11.30;7.83;;;;;;;25.75;40.88;95383.53;5066359;28;20372;-75
2023/06/05 10:35:12;;;;;;;11.13;8.43;;;;;;;25.77;41.03;95384.56;5027079;28;20056;-75
2023/06/05 10:38:16;;;;;;;10.77;7.00;;;;;;;25.94;40.64;95381.56;5065681;28;20033;-75
2023/06/05 10:40:42;;;;;;;11.05;8.25;;;;;;;26.03;40.59;95375.56;5066545;28;20462;-76
2023/06/05 10:43:30;;;;;;;10.32;7.82;;;;;;;25.88;40.99;95370.34;5065555;28;20056;-76
2023/06/05 10:45:58;;;;;;;9.85;7.55;;;;;;;25.45;41.16;95369.47;5065252;28;20052;-76
2023/06/05 10:49:01;;;;;;;9.60;7.45;;;;;;;25.73;40.71;95360.75;5066481;28;20028;-76
2023/06/05 10:51:46;;;;;;;9.52;7.30;;;;;;;25.59;41.45;95357.06;5065018;28;20121;-76
2023/06/05 10:54:23;;;;;;;10.98;6.88;;;;;;;25.00;41.29;95347.28;5066130;28;20039;-76
2023/06/05 10:57:05;;;;;;;11.52;7.30;;;;;;;25.49;41.11;95356.63;5067394;28;20041;-75
2023/06/05 10:59:35;;;;;;;9.68;7.32;;;;;;;25.89;40.99;95352.16;5065462;28;20028;-76
2023/06/05 11:02:11;;;;;;;11.35;7.60;;;;;;;26.24;40.93;95347.66;5067566;28;20024;-75
2023/06/05 11:04:48;;;;;;;11.10;7.88;;;;;;;26.40;41.34;95355.16;5066082;28;20025;-76
2023/06/05 11:07:15;;;;;;;7.85;6.70;;;;;;;26.63;40.86;95337.97;5065684;28;20024;-75
2023/06/05 11:10:06;;;;;;;9.68;7.65;;;;;;;27.08;38.60;95348.63;5069297;28;20032;-75
2023/06/05 11:12:34;;;;;;;7.85;6.63;;;;;;;27.13;38.19;95344.94;5067538;28;20078;-75
2023/06/05 11:15:01;;;;;;;7.65;6.60;;;;;;;26.89;38.45;95342.94;5067101;28;20025;-76
2023/06/05 11:17:42;;;;;;;8.32;6.25;;;;;;;26.91;38.42;95343.97;5047945;28;20036;-77
2023/06/05 11:20:28;;;;;;;9.88;6.22;;;;;;;27.26;38.98;95337.28;5064244;28;20033;-76
2023/06/05 11:22:53;;;;;;;8.93;6.50;;;;;;;27.57;37.70;95334.19;5066679;28;20112;-75